Aérodrome :
LOGIN :

S'inscrire | Disclaimer

   EN    FR    IT 

 










Légende :    VFR   VFR Marginal   IFR   IFR Intensif   IFR Très Intensif
Visi : 
Plafond : 
>= 8 km
>= 3000ft
5 à 8 km
1000 à 3000 ft
1500m à 5 km
500 à 1000 ft
800 à 1500m
200 à 500 ft
< 800m
< 200 ft
Symboles :   Orages  Brouillard  Fortes neiges  Fortes précipitations  Vent > 20 kt
SIGMETs :   Divers  Orages  Givrage  Turbulence  Onde Orograph.  Cendres Volcan.






- Altitude de l'aérodrome : 459 ft
- Code IATA : CER


LFRC - Cherbourg / Maupertus

DERNIER METAR :
  • 270230Z AUTO 17013KT 7000 -RA BKN006 OVC015 04/04 Q1000

METARs EXPIRÉS :
  • 270200Z AUTO 16011KT 130V190 8000 -RA BKN006 OVC012 05/04 Q1002
  • 270130Z AUTO 18010KT 9999 -RA FEW009 BKN018 BKN028 05/04 Q1003
  • 270100Z AUTO 18008KT 9999 -RA FEW016 BKN023 BKN040 05/04 Q1004
  • 270030Z AUTO 18008KT 9999 -RA FEW032 BKN045 BKN068 05/04 Q1005
  • 270000Z AUTO 19008KT 9999 SCT022 BKN036 BKN046 05/04 Q1006
  • 262330Z AUTO 20011KT 9999 -RA FEW022 SCT060 BKN076 05/03 Q1007

Prévision TAF périmée.



MET'MAP, la Météo Aéronautique d'un coup d'oeil ! - Copyright ORBIFLY Décembre 2007 - Disclaimer

ORBIFLY MET'MAP TEAM :

Programmation & Développement : Alexandra Zaïnal
Sur une idée originale de : Baudouin d'Aumeries
Assistance à la programmation : Marc-Olivier Méhu
Soutien technique & logistique : Manuel Goepfert

Contact : metmap@orbifly.com




SOURCES & CREDITS :

   NOAA